Time;durP1;ratioP1;P1;durP2;ratioP2;P2;SDS_P1;SDS_P2;PMS_P1;PMS_P2;Temp;Humidity;BMP_temperature;BMP_pressure;BME280_temperature;BME280_humidity;BME280_pressure;Samples;Min_cycle;Max_cycle;Signal;HPM_P1;HPM_P2
2021/04/30 00:01:41;;;;;;;11.95;9.60;;;9.90;99.90;;;;;;5031645;28;20064;-79
2021/04/30 00:04:07;;;;;;;14.35;10.80;;;9.90;99.90;;;;;;5032276;28;20074;-79
2021/04/30 00:06:33;;;;;;;10.80;8.55;;;9.80;99.90;;;;;;5031451;28;20029;-79
2021/04/30 00:08:59;;;;;;;13.13;9.23;;;9.70;99.90;;;;;;5030274;28;20403;-79
2021/04/30 00:11:25;;;;;;;10.70;9.60;;;9.70;99.90;;;;;;5031868;28;20108;-79
2021/04/30 00:13:50;;;;;;;10.25;8.32;;;9.70;99.90;;;;;;5035052;28;20040;-79
2021/04/30 00:16:16;;;;;;;9.40;8.50;;;9.70;99.90;;;;;;5032304;28;20116;-79
2021/04/30 00:18:42;;;;;;;10.93;8.05;;;9.60;99.90;;;;;;5031308;28;20079;-79
2021/04/30 00:21:08;;;;;;;9.63;8.13;;;9.60;99.90;;;;;;5031233;28;20456;-79
2021/04/30 00:23:34;;;;;;;8.85;7.97;;;9.50;99.90;;;;;;5031545;28;20480;-79
2021/04/30 00:26:06;;;;;;;10.73;8.30;;;9.50;99.90;;;;;;5034368;28;20128;-79
2021/04/30 00:28:32;;;;;;;8.45;7.63;;;9.50;99.90;;;;;;5030419;28;20087;-79
2021/04/30 00:30:58;;;;;;;11.23;7.85;;;9.50;99.90;;;;;;5034060;28;20113;-79
2021/04/30 00:33:25;;;;;;;8.80;7.93;;;9.50;99.90;;;;;;5031249;28;20025;-79
2021/04/30 00:35:52;;;;;;;11.52;8.43;;;9.40;99.90;;;;;;5030705;28;20608;-79
2021/04/30 00:38:18;;;;;;;8.65;7.70;;;9.60;99.90;;;;;;5031762;28;20018;-79
2021/04/30 00:40:45;;;;;;;9.25;6.95;;;9.50;99.90;;;;;;5031025;28;20372;-79
2021/04/30 00:43:11;;;;;;;9.10;8.02;;;9.50;99.90;;;;;;5032574;28;20506;-79
2021/04/30 00:45:37;;;;;;;9.70;7.70;;;9.60;99.90;;;;;;5033189;28;20029;-79
2021/04/30 00:48:03;;;;;;;10.63;8.23;;;9.50;99.90;;;;;;5035141;28;20021;-79
2021/04/30 00:50:29;;;;;;;9.48;8.25;;;9.60;99.90;;;;;;5031970;28;20025;-79
2021/04/30 00:52:55;;;;;;;12.27;7.72;;;9.70;99.90;;;;;;5030570;28;20029;-79
2021/04/30 00:55:22;;;;;;;8.70;7.90;;;9.70;99.90;;;;;;5030950;28;20029;-79
2021/04/30 00:57:54;;;;;;;11.48;8.18;;;9.60;99.90;;;;;;5036133;28;20020;-79
2021/04/30 01:00:22;;;;;;;11.15;7.78;;;9.70;99.90;;;;;;5033649;28;20024;-79
2021/04/30 01:02:48;;;;;;;10.98;7.80;;;9.70;99.90;;;;;;5033678;28;20415;-79
2021/04/30 01:05:15;;;;;;;10.10;7.88;;;9.70;99.90;;;;;;5033377;28;20025;-79
2021/04/30 01:07:41;;;;;;;11.77;8.18;;;9.70;99.90;;;;;;5026670;28;20022;-79
2021/04/30 01:10:08;;;;;;;17.75;7.82;;;9.70;99.90;;;;;;5034457;28;20022;-79
2021/04/30 01:12:34;;;;;;;11.25;7.90;;;9.60;99.90;;;;;;5030623;28;20025;-79
2021/04/30 01:15:00;;;;;;;9.20;7.88;;;9.50;99.90;;;;;;5031057;28;20022;-79
2021/04/30 01:17:27;;;;;;;9.57;8.27;;;9.50;99.90;;;;;;5030977;28;20014;-79
2021/04/30 01:19:57;;;;;;;12.65;8.55;;;9.50;99.90;;;;;;5032267;28;20475;-79
2021/04/30 01:22:36;;;;;;;7.90;6.75;;;9.60;99.90;;;;;;5032915;28;20041;-79
2021/04/30 01:25:04;;;;;;;9.27;7.90;;;9.50;99.90;;;;;;5033929;28;20774;-79
2021/04/30 01:27:30;;;;;;;9.30;8.18;;;9.50;99.90;;;;;;5034707;28;20159;-79
2021/04/30 01:29:56;;;;;;;15.15;9.20;;;9.40;99.90;;;;;;5031874;28;20100;-79
2021/04/30 01:32:22;;;;;;;12.68;8.73;;;9.50;99.90;;;;;;5033331;28;20114;-79
2021/04/30 01:34:48;;;;;;;8.98;8.07;;;9.50;99.90;;;;;;5035716;28;20033;-79
2021/04/30 01:37:13;;;;;;;9.63;8.20;;;9.60;99.90;;;;;;5034234;28;20383;-79
2021/04/30 01:39:40;;;;;;;7.55;6.90;;;9.50;99.90;;;;;;5037062;28;20120;-79
2021/04/30 01:42:07;;;;;;;8.00;7.20;;;9.50;99.90;;;;;;5034789;28;20018;-79
2021/04/30 01:44:32;;;;;;;9.35;7.88;;;9.40;99.90;;;;;;5037101;28;20037;-79
2021/04/30 01:46:59;;;;;;;12.10;7.13;;;9.40;99.90;;;;;;5034588;28;20108;-79
2021/04/30 01:49:26;;;;;;;8.68;6.57;;;9.40;99.90;;;;;;5034019;28;20442;-79
2021/04/30 01:51:52;;;;;;;8.65;7.43;;;9.40;99.90;;;;;;5032878;28;20411;-79
2021/04/30 01:54:18;;;;;;;7.97;7.18;;;9.40;99.90;;;;;;5034117;28;20029;-79
2021/04/30 01:56:44;;;;;;;8.65;7.43;;;9.50;99.90;;;;;;5034011;28;20030;-79
2021/04/30 01:59:09;;;;;;;9.50;7.18;;;9.50;99.90;;;;;;5037516;28;20021;-79
2021/04/30 02:01:35;;;;;;;7.63;6.50;;;9.40;99.90;;;;;;5033668;28;20055;-79
2021/04/30 02:04:01;;;;;;;9.23;5.90;;;9.40;99.90;;;;;;5033831;28;20017;-79
2021/04/30 02:06:27;;;;;;;7.05;6.45;;;9.10;99.90;;;;;;5035595;28;20479;-79
2021/04/30 02:08:54;;;;;;;7.63;6.75;;;9.00;99.90;;;;;;5033848;28;20052;-79
2021/04/30 02:11:20;;;;;;;10.05;7.28;;;8.90;99.90;;;;;;5035801;28;20411;-79
2021/04/30 02:13:46;;;;;;;8.45;7.43;;;8.80;99.90;;;;;;5033689;28;20044;-79
2021/04/30 02:16:12;;;;;;;8.85;6.95;;;8.80;99.90;;;;;;5033464;28;20033;-79
2021/04/30 02:18:37;;;;;;;10.77;7.40;;;8.80;99.90;;;;;;5033386;28;20022;-79
2021/04/30 02:21:03;;;;;;;10.48;7.68;;;8.70;99.90;;;;;;5033731;28;20029;-79
2021/04/30 02:23:29;;;;;;;9.02;7.72;;;8.70;99.90;;;;;;5033489;28;20025;-79
2021/04/30 02:25:55;;;;;;;8.50;7.60;;;8.80;99.90;;;;;;5033118;28;20028;-79
2021/04/30 02:28:21;;;;;;;9.25;7.03;;;8.90;99.90;;;;;;5033465;28;20022;-79
2021/04/30 02:30:46;;;;;;;10.27;8.05;;;9.00;99.90;;;;;;5035833;28;20029;-79
2021/04/30 02:33:12;;;;;;;8.38;7.25;;;9.10;99.90;;;;;;5036026;28;20032;-79
2021/04/30 02:35:41;;;;;;;9.85;7.55;;;9.10;99.90;;;;;;5033193;28;20096;-79
2021/04/30 02:38:09;;;;;;;7.05;6.30;;;9.10;99.90;;;;;;5033390;28;20570;-79
2021/04/30 02:40:37;;;;;;;11.05;7.15;;;9.00;99.90;;;;;;5033078;28;20541;-79
2021/04/30 02:43:09;;;;;;;6.82;6.13;;;9.00;99.90;;;;;;5032146;28;20029;-79
2021/04/30 02:45:35;;;;;;;8.10;6.43;;;9.00;99.90;;;;;;5033343;28;20399;-79
2021/04/30 02:48:02;;;;;;;7.18;6.28;;;8.90;99.90;;;;;;5033152;28;20030;-79
2021/04/30 02:50:30;;;;;;;7.07;6.38;;;8.80;99.90;;;;;;5032897;28;20032;-79
2021/04/30 02:52:56;;;;;;;10.57;7.18;;;8.80;99.90;;;;;;5033006;28;20045;-79
2021/04/30 02:55:24;;;;;;;7.78;7.07;;;8.80;99.90;;;;;;5033005;28;20026;-79
2021/04/30 02:57:54;;;;;;;8.18;7.45;;;8.80;99.90;;;;;;5033026;28;20479;-79
2021/04/30 03:00:22;;;;;;;8.35;7.45;;;8.80;99.90;;;;;;5027367;28;20454;-79
2021/04/30 03:02:48;;;;;;;10.20;6.57;;;8.80;99.90;;;;;;5032713;28;20071;-79
2021/04/30 03:05:14;;;;;;;8.48;6.93;;;8.80;99.90;;;;;;5036116;28;20499;-79
2021/04/30 03:07:40;;;;;;;9.23;7.10;;;8.90;99.90;;;;;;5035718;28;20025;-79
2021/04/30 03:10:07;;;;;;;8.68;7.50;;;8.80;99.90;;;;;;5032872;28;20025;-79
2021/04/30 03:12:32;;;;;;;8.27;7.53;;;8.70;99.90;;;;;;5033056;28;20021;-79
2021/04/30 03:14:58;;;;;;;9.82;8.27;;;8.70;99.90;;;;;;5032680;28;20017;-79
2021/04/30 03:17:24;;;;;;;8.82;7.93;;;8.80;99.90;;;;;;5028428;28;20025;-79
2021/04/30 03:19:50;;;;;;;8.80;8.00;;;8.90;99.90;;;;;;5032400;28;20124;-79
2021/04/30 03:22:15;;;;;;;8.90;8.00;;;8.90;99.90;;;;;;5036397;28;20104;-79
2021/04/30 03:24:41;;;;;;;10.48;7.28;;;9.00;99.90;;;;;;5032713;28;20025;-79
2021/04/30 03:27:07;;;;;;;9.15;7.30;;;9.00;99.90;;;;;;5031838;28;20060;-79
2021/04/30 03:29:33;;;;;;;7.78;7.07;;;9.00;99.90;;;;;;5032413;28;20030;-79
2021/04/30 03:31:58;;;;;;;8.35;6.65;;;9.00;99.90;;;;;;5032991;28;20033;-79
2021/04/30 03:34:24;;;;;;;7.60;6.90;;;9.00;99.90;;;;;;5033551;28;20025;-79
2021/04/30 03:36:50;;;;;;;7.68;6.97;;;9.00;99.90;;;;;;5033527;28;20025;-79
2021/04/30 03:39:16;;;;;;;7.60;6.30;;;9.00;99.90;;;;;;5032401;28;20024;-79
2021/04/30 03:41:41;;;;;;;8.30;6.93;;;8.90;99.90;;;;;;5032150;28;20029;-79
2021/04/30 03:44:07;;;;;;;7.78;7.10;;;9.00;99.90;;;;;;5035362;28;20010;-79
2021/04/30 03:46:33;;;;;;;8.48;7.00;;;9.10;99.90;;;;;;5031918;28;20507;-79
2021/04/30 03:48:59;;;;;;;7.13;6.53;;;9.10;99.90;;;;;;5033022;28;20021;-78
2021/04/30 03:51:24;;;;;;;7.47;6.50;;;9.20;99.90;;;;;;5033196;28;20033;-79
2021/04/30 03:53:50;;;;;;;7.38;6.45;;;9.20;99.90;;;;;;5031229;28;20017;-79
2021/04/30 03:56:16;;;;;;;9.80;7.45;;;9.20;99.90;;;;;;5032071;28;20494;-79
2021/04/30 03:58:42;;;;;;;8.38;7.55;;;9.30;99.90;;;;;;5033248;28;20127;-79
2021/04/30 04:01:07;;;;;;;10.32;7.22;;;9.30;99.90;;;;;;5032981;28;20488;-79
2021/04/30 04:03:34;;;;;;;7.70;7.00;;;9.30;99.90;;;;;;5030362;28;20021;-79
2021/04/30 04:06:00;;;;;;;7.22;6.53;;;9.30;99.90;;;;;;5032424;28;20033;-79
2021/04/30 04:08:28;;;;;;;8.18;7.22;;;9.30;99.90;;;;;;5031893;28;20017;-79
2021/04/30 04:10:55;;;;;;;6.82;6.22;;;9.30;99.90;;;;;;5033631;28;20475;-79
2021/04/30 04:13:23;;;;;;;8.05;7.28;;;9.30;99.90;;;;;;5031340;28;20017;-79
2021/04/30 04:15:49;;;;;;;6.53;5.93;;;9.30;99.90;;;;;;5027252;28;20030;-79
2021/04/30 04:18:16;;;;;;;6.93;6.32;;;9.30;99.90;;;;;;5031366;28;20020;-79
2021/04/30 04:20:42;;;;;;;7.10;6.40;;;9.30;99.90;;;;;;5035800;28;20074;-79
2021/04/30 04:23:09;;;;;;;6.80;5.90;;;9.30;99.90;;;;;;5031505;28;20014;-79
2021/04/30 04:25:35;;;;;;;7.78;6.35;;;9.30;99.90;;;;;;5032468;28;20052;-79
2021/04/30 04:28:01;;;;;;;7.03;6.43;;;9.30;99.90;;;;;;5031093;28;20025;-79
2021/04/30 04:30:27;;;;;;;6.85;6.30;;;9.40;99.90;;;;;;5033527;28;20029;-79
2021/04/30 04:32:54;;;;;;;7.55;6.85;;;9.40;99.90;;;;;;5031517;28;20078;-79
2021/04/30 04:35:20;;;;;;;8.13;7.32;;;9.40;99.90;;;;;;5037213;28;20036;-79
2021/04/30 04:37:46;;;;;;;7.68;6.93;;;9.40;99.90;;;;;;5032624;28;20546;-79
2021/04/30 04:40:13;;;;;;;7.63;6.93;;;9.40;99.90;;;;;;5032037;28;20099;-79
2021/04/30 04:42:41;;;;;;;7.13;6.53;;;9.40;99.90;;;;;;5031206;28;20026;-79
2021/04/30 04:45:08;;;;;;;6.47;5.97;;;9.40;99.90;;;;;;5033890;28;20114;-79
2021/04/30 04:47:34;;;;;;;6.65;6.05;;;9.40;99.90;;;;;;5031122;28;20505;-79
2021/04/30 04:50:00;;;;;;;7.90;7.03;;;9.40;99.90;;;;;;5036947;28;20051;-79
2021/04/30 04:52:25;;;;;;;8.15;6.32;;;9.20;99.90;;;;;;5034999;28;20058;-79
2021/04/30 04:54:51;;;;;;;6.47;5.88;;;9.20;99.90;;;;;;5034752;28;20049;-79
2021/04/30 04:57:17;;;;;;;6.07;5.57;;;9.20;99.90;;;;;;5032735;28;20014;-79
2021/04/30 04:59:43;;;;;;;6.80;6.07;;;9.20;99.90;;;;;;5030851;28;20029;-79
2021/04/30 05:02:09;;;;;;;5.80;5.30;;;9.10;99.90;;;;;;5033507;28;20037;-79
2021/04/30 05:04:34;;;;;;;6.53;5.00;;;9.10;99.90;;;;;;5037678;28;20041;-79
2021/04/30 05:07:00;;;;;;;6.15;5.55;;;9.10;99.90;;;;;;5038039;28;20021;-79
2021/04/30 05:09:28;;;;;;;5.72;5.20;;;9.00;99.90;;;;;;5038487;28;20025;-79
2021/04/30 05:11:54;;;;;;;5.90;5.40;;;9.00;99.90;;;;;;5036146;28;20487;-79
2021/04/30 05:14:20;;;;;;;8.63;6.57;;;9.00;99.90;;;;;;5033716;28;20494;-79
2021/04/30 05:16:46;;;;;;;6.30;5.65;;;9.20;99.90;;;;;;5036767;28;20418;-79
2021/04/30 05:19:12;;;;;;;5.72;5.22;;;9.30;99.90;;;;;;5035887;28;20082;-79
2021/04/30 05:21:40;;;;;;;6.10;5.57;;;9.30;99.90;;;;;;5035113;28;20064;-79
2021/04/30 05:24:07;;;;;;;4.13;3.72;;;9.30;99.90;;;;;;5046784;28;20108;-79
2021/04/30 05:26:33;;;;;;;2.58;2.38;;;9.40;99.90;;;;;;5048461;28;20024;-79
2021/04/30 05:28:59;;;;;;;2.13;1.98;;;9.30;99.90;;;;;;5031999;28;20466;-79
2021/04/30 05:31:26;;;;;;;2.50;2.30;;;9.30;99.90;;;;;;5039569;28;20560;-79
2021/04/30 05:33:52;;;;;;;2.17;1.75;;;9.30;99.90;;;;;;5046838;28;20032;-79
2021/04/30 05:36:18;;;;;;;3.83;1.80;;;9.30;99.90;;;;;;5048845;28;20407;-79
2021/04/30 05:38:44;;;;;;;2.22;2.00;;;9.20;99.90;;;;;;5043939;28;20112;-79
2021/04/30 05:41:09;;;;;;;2.75;2.10;;;9.20;99.90;;;;;;5051376;28;20053;-79
2021/04/30 05:43:35;;;;;;;2.42;2.03;;;9.10;99.90;;;;;;5044916;28;20025;-79
2021/04/30 05:46:01;;;;;;;5.53;2.22;;;9.10;99.90;;;;;;5035382;28;20060;-80
2021/04/30 05:48:27;;;;;;;2.22;1.90;;;9.10;99.90;;;;;;5042351;28;20032;-80
2021/04/30 05:50:53;;;;;;;2.60;2.38;;;9.10;99.90;;;;;;5047396;28;20037;-80
2021/04/30 05:53:21;;;;;;;4.18;2.25;;;9.20;99.90;;;;;;5035379;28;20030;-80
2021/04/30 05:55:47;;;;;;;3.75;2.10;;;9.20;99.90;;;;;;5049451;28;20024;-80
2021/04/30 05:58:12;;;;;;;2.25;2.05;;;9.20;99.90;;;;;;5037507;28;20025;-80
2021/04/30 06:00:38;;;;;;;2.25;2.08;;;9.20;99.90;;;;;;5035735;28;20040;-80
2021/04/30 06:03:04;;;;;;;3.97;2.25;;;9.10;99.90;;;;;;5035739;28;20025;-80
2021/04/30 06:05:30;;;;;;;2.55;2.10;;;8.90;99.90;;;;;;5052960;28;20021;-80
2021/04/30 06:07:56;;;;;;;3.20;2.47;;;8.90;99.90;;;;;;5041992;28;20048;-80
2021/04/30 06:10:21;;;;;;;5.82;2.53;;;8.90;99.90;;;;;;5035469;28;20030;-80
2021/04/30 06:12:47;;;;;;;4.13;2.72;;;9.00;99.90;;;;;;5034305;28;20040;-80
2021/04/30 06:15:13;;;;;;;4.53;2.97;;;9.10;99.90;;;;;;5034674;28;20025;-80
2021/04/30 06:17:39;;;;;;;3.85;2.50;;;9.30;99.90;;;;;;5035255;28;20120;-79
2021/04/30 06:20:06;;;;;;;3.10;2.83;;;9.20;99.90;;;;;;5035573;28;20025;-79
2021/04/30 06:22:31;;;;;;;3.00;2.70;;;8.90;99.90;;;;;;5037564;28;20441;-79
2021/04/30 06:24:57;;;;;;;4.50;2.60;;;9.00;99.90;;;;;;5034845;28;20053;-79
2021/04/30 06:27:23;;;;;;;3.63;3.33;;;8.90;99.90;;;;;;5036297;28;20487;-80
2021/04/30 06:29:49;;;;;;;6.03;3.30;;;8.90;99.90;;;;;;5055383;28;20021;-80
2021/04/30 06:32:15;;;;;;;3.53;3.22;;;9.00;99.90;;;;;;5035389;28;20087;-79
2021/04/30 06:34:41;;;;;;;6.43;3.45;;;9.10;99.90;;;;;;5034627;28;20038;-80
2021/04/30 06:37:07;;;;;;;4.35;3.13;;;9.10;99.90;;;;;;5034501;28;20105;-80
2021/04/30 06:39:32;;;;;;;7.65;3.50;;;9.20;99.90;;;;;;5033247;28;20471;-80
2021/04/30 06:42:02;;;;;;;3.95;3.47;;;9.30;99.90;;;;;;5034462;28;20044;-80
2021/04/30 06:44:29;;;;;;;4.03;3.13;;;9.20;99.90;;;;;;5033605;28;20564;-80
2021/04/30 06:46:56;;;;;;;4.03;3.65;;;9.20;99.90;;;;;;5033680;28;20272;-80
2021/04/30 06:49:22;;;;;;;3.55;3.25;;;9.10;99.90;;;;;;5033600;28;20430;-80
2021/04/30 06:51:49;;;;;;;4.15;3.75;;;9.00;99.90;;;;;;5030692;28;20025;-80
2021/04/30 06:54:16;;;;;;;3.83;3.30;;;9.00;99.90;;;;;;5048876;28;20032;-80
2021/04/30 06:56:42;;;;;;;4.50;4.00;;;9.00;99.90;;;;;;5035849;28;20005;-80
2021/04/30 06:59:07;;;;;;;4.00;3.60;;;9.10;99.90;;;;;;5045906;28;20529;-80
2021/04/30 07:01:33;;;;;;;4.40;3.20;;;9.20;99.90;;;;;;5037295;28;20581;-80
2021/04/30 07:03:59;;;;;;;7.88;2.90;;;9.20;99.90;;;;;;5039797;28;20021;-79
2021/04/30 07:06:25;;;;;;;5.45;2.85;;;9.20;99.90;;;;;;5047922;28;20061;-80
2021/04/30 07:08:51;;;;;;;4.43;2.75;;;9.30;99.90;;;;;;5048391;28;20055;-80
2021/04/30 07:11:17;;;;;;;3.65;2.78;;;9.40;99.90;;;;;;5035809;28;20021;-80
2021/04/30 07:13:43;;;;;;;3.92;2.88;;;9.40;99.90;;;;;;5039578;28;20520;-80
2021/04/30 07:16:09;;;;;;;4.38;2.75;;;9.40;99.90;;;;;;5046808;28;20025;-80
2021/04/30 07:18:34;;;;;;;2.75;2.55;;;9.30;99.90;;;;;;5044358;28;20018;-80
2021/04/30 07:21:01;;;;;;;3.47;2.60;;;9.30;99.90;;;;;;5050241;28;20387;-83
2021/04/30 07:23:28;;;;;;;3.40;2.80;;;9.40;99.90;;;;;;5042903;28;20022;-82
2021/04/30 07:25:54;;;;;;;2.97;2.70;;;9.40;99.90;;;;;;5041433;28;20022;-82
2021/04/30 07:28:19;;;;;;;2.75;2.28;;;9.50;99.90;;;;;;5033693;28;20042;-81
2021/04/30 07:30:45;;;;;;;2.72;2.53;;;9.60;99.90;;;;;;5031788;28;20112;-82
2021/04/30 07:33:11;;;;;;;4.30;2.92;;;9.60;99.90;;;;;;5033484;28;20040;-81
2021/04/30 07:35:41;;;;;;;3.65;3.33;;;9.50;99.90;;;;;;5033235;28;20025;-80
2021/04/30 07:38:08;;;;;;;2.83;2.63;;;9.60;99.90;;;;;;5033260;28;20030;-80
2021/04/30 07:40:34;;;;;;;4.47;2.78;;;9.80;99.90;;;;;;5033239;28;20022;-80
2021/04/30 07:43:00;;;;;;;2.97;2.78;;;9.80;99.90;;;;;;5033344;28;20714;-80
2021/04/30 07:45:26;;;;;;;2.60;2.40;;;9.80;99.90;;;;;;5033176;28;20027;-80
2021/04/30 07:47:52;;;;;;;3.90;3.60;;;9.70;99.90;;;;;;5033062;28;20033;-80
2021/04/30 07:50:17;;;;;;;5.47;4.25;;;9.80;99.90;;;;;;5033123;28;20513;-80
2021/04/30 07:52:44;;;;;;;4.57;3.70;;;9.80;99.90;;;;;;5032464;28;20029;-80
2021/04/30 07:55:10;;;;;;;4.53;3.75;;;9.90;99.90;;;;;;5032897;28;20045;-80
2021/04/30 07:57:38;;;;;;;3.80;3.47;;;9.90;99.90;;;;;;5032694;28;20032;-80
2021/04/30 08:00:05;;;;;;;3.42;3.13;;;9.90;99.90;;;;;;5032744;28;20018;-80
2021/04/30 08:02:31;;;;;;;4.93;4.43;;;9.90;99.90;;;;;;5031390;28;20041;-80
2021/04/30 08:04:56;;;;;;;4.43;4.03;;;9.90;99.90;;;;;;5032789;28;20098;-80
2021/04/30 08:07:22;;;;;;;5.07;4.57;;;10.00;99.90;;;;;;5032701;28;20033;-80
2021/04/30 08:09:48;;;;;;;5.32;4.75;;;10.00;99.90;;;;;;5032488;28;20029;-80
2021/04/30 08:12:16;;;;;;;4.57;4.18;;;10.00;99.90;;;;;;5032706;28;20396;-80
2021/04/30 08:14:42;;;;;;;6.38;3.65;;;10.00;99.90;;;;;;5032705;28;20556;-80
2021/04/30 08:17:08;;;;;;;5.07;4.53;;;9.90;99.90;;;;;;5032611;28;20026;-80
2021/04/30 08:19:34;;;;;;;5.07;3.95;;;10.00;99.90;;;;;;5032493;28;20049;-80
2021/04/30 08:22:00;;;;;;;6.28;3.95;;;10.00;99.90;;;;;;5032531;28;20045;-81
2021/04/30 08:24:26;;;;;;;5.88;4.05;;;9.90;99.90;;;;;;5032663;28;20017;-80
2021/04/30 08:26:51;;;;;;;4.68;4.18;;;9.80;99.90;;;;;;5032545;28;20494;-80
2021/04/30 08:29:17;;;;;;;5.55;4.55;;;9.90;99.90;;;;;;5032671;28;20017;-80
2021/04/30 08:31:44;;;;;;;4.53;4.13;;;10.00;99.90;;;;;;5032310;28;20025;-80
2021/04/30 08:34:10;;;;;;;4.20;3.80;;;9.90;99.90;;;;;;5032140;28;20021;-80
2021/04/30 08:36:37;;;;;;;3.63;3.33;;;10.00;99.90;;;;;;5032417;28;20029;-80
2021/04/30 08:39:04;;;;;;;5.20;4.15;;;10.10;99.90;;;;;;5032105;28;20013;-80
2021/04/30 08:41:35;;;;;;;4.00;3.60;;;10.10;99.90;;;;;;5032528;28;20017;-80
2021/04/30 08:44:02;;;;;;;3.30;3.00;;;10.20;99.90;;;;;;5032305;28;20514;-81
2021/04/30 08:46:28;;;;;;;3.95;3.20;;;10.30;99.90;;;;;;5032206;28;20030;-81
2021/04/30 08:49:00;;;;;;;4.78;4.20;;;10.20;99.90;;;;;;5031752;28;20036;-81
2021/04/30 08:51:26;;;;;;;6.97;4.47;;;10.10;99.90;;;;;;5032338;28;20033;-80
2021/04/30 08:53:53;;;;;;;4.85;4.35;;;10.30;99.90;;;;;;5031902;28;20068;-80
2021/04/30 08:56:19;;;;;;;4.53;4.13;;;10.40;99.90;;;;;;5032220;28;20033;-81
2021/04/30 08:58:46;;;;;;;4.10;3.70;;;10.40;99.90;;;;;;5032176;28;20025;-80
2021/04/30 09:01:11;;;;;;;4.15;3.72;;;10.50;99.90;;;;;;5031891;28;20049;-80
2021/04/30 09:03:38;;;;;;;5.68;4.53;;;10.70;99.90;;;;;;5030689;28;20022;-81
2021/04/30 09:06:04;;;;;;;4.00;3.60;;;10.70;99.90;;;;;;5032101;28;20108;-81
2021/04/30 09:08:45;;;;;;;4.45;4.15;;;10.60;99.90;;;;;;5032152;28;20032;-81
2021/04/30 09:11:28;;;;;;;4.43;4.00;;;10.50;99.90;;;;;;5032001;28;20029;-81
2021/04/30 09:14:20;;;;;;;4.75;4.22;;;10.40;99.90;;;;;;5031867;28;20490;-81
2021/04/30 09:17:04;;;;;;;3.58;3.28;;;10.50;99.90;;;;;;5030646;28;20022;-80
2021/04/30 09:19:46;;;;;;;3.88;3.55;;;10.40;99.90;;;;;;5031836;28;20438;-80
2021/04/30 09:22:13;;;;;;;4.22;3.40;;;10.30;99.90;;;;;;5031991;28;20029;-80
2021/04/30 09:24:39;;;;;;;3.85;3.47;;;10.30;99.90;;;;;;5032112;28;20026;-80
2021/04/30 09:27:05;;;;;;;4.30;3.90;;;10.40;99.90;;;;;;5031757;28;20522;-81
2021/04/30 09:29:35;;;;;;;3.78;3.28;;;10.50;99.90;;;;;;5032079;28;20029;-80
2021/04/30 09:32:02;;;;;;;3.70;3.28;;;10.70;99.90;;;;;;5031803;28;20379;-81
2021/04/30 09:34:30;;;;;;;3.60;3.28;;;10.80;99.90;;;;;;5031457;28;20060;-80
2021/04/30 09:37:13;;;;;;;6.75;3.30;;;10.90;99.90;;;;;;5031789;28;20084;-80
2021/04/30 09:39:53;;;;;;;3.45;2.55;;;10.80;99.90;;;;;;5031952;28;20033;-81
2021/04/30 09:42:24;;;;;;;3.13;2.83;;;10.80;99.90;;;;;;5031819;28;20067;-80
2021/04/30 09:44:52;;;;;;;3.25;2.95;;;10.90;99.90;;;;;;5031627;28;20037;-80
2021/04/30 09:47:22;;;;;;;2.88;2.55;;;11.00;99.90;;;;;;5031415;28;20104;-80
2021/04/30 09:49:53;;;;;;;4.45;2.55;;;11.00;99.90;;;;;;5031823;28;20036;-81
2021/04/30 09:52:21;;;;;;;3.85;2.85;;;11.10;99.90;;;;;;5035017;28;20030;-81
2021/04/30 09:54:48;;;;;;;2.92;2.45;;;11.10;99.90;;;;;;5035314;28;20029;-81
2021/04/30 09:57:17;;;;;;;2.30;2.00;;;11.20;99.90;;;;;;5035091;28;20427;-81
2021/04/30 09:59:59;;;;;;;2.40;2.20;;;11.20;99.90;;;;;;5035433;28;20506;-80
2021/04/30 10:02:29;;;;;;;2.55;2.00;;;11.40;99.90;;;;;;5034824;28;20447;-81
2021/04/30 10:05:21;;;;;;;2.80;2.60;;;11.40;99.90;;;;;;5035198;28;20427;-81
2021/04/30 10:07:47;;;;;;;1.70;1.60;;;11.40;99.90;;;;;;5034761;28;20147;-81
2021/04/30 10:10:18;;;;;;;1.50;1.40;;;11.30;99.90;;;;;;5033611;28;20119;-81
2021/04/30 10:12:46;;;;;;;1.40;1.30;;;11.20;99.90;;;;;;5035231;28;20549;-81
2021/04/30 10:15:14;;;;;;;1.65;1.55;;;11.10;99.90;;;;;;5034750;28;20025;-80
2021/04/30 10:17:40;;;;;;;2.67;2.05;;;11.30;99.90;;;;;;5034761;28;20567;-81
2021/04/30 10:20:09;;;;;;;1.70;1.60;;;11.40;99.90;;;;;;5034736;28;20096;-81
2021/04/30 10:22:40;;;;;;;2.70;2.00;;;11.20;99.90;;;;;;5034696;28;20029;-81
2021/04/30 10:25:08;;;;;;;1.58;1.45;;;11.20;99.90;;;;;;5034588;28;20024;-81
2021/04/30 10:27:49;;;;;;;2.75;1.50;;;11.20;99.90;;;;;;5034839;28;20483;-81
2021/04/30 10:30:38;;;;;;;1.63;1.30;;;11.40;99.90;;;;;;5034308;28;20036;-81
2021/04/30 10:33:16;;;;;;;1.25;1.15;;;11.50;99.90;;;;;;5034547;28;20084;-81
2021/04/30 10:35:47;;;;;;;1.40;1.30;;;11.60;99.90;;;;;;5033176;28;20491;-80
2021/04/30 10:38:19;;;;;;;7.40;1.67;;;11.40;99.90;;;;;;5034464;28;20029;-81
2021/04/30 10:41:02;;;;;;;4.18;1.25;;;11.30;99.90;;;;;;5034664;28;20017;-81
2021/04/30 10:43:29;;;;;;;1.80;1.00;;;11.30;99.90;;;;;;5034637;28;20033;-81
2021/04/30 10:46:14;;;;;;;1.27;1.17;;;11.10;99.90;;;;;;5033949;28;20542;-81
2021/04/30 10:49:05;;;;;;;8.68;5.20;;;10.80;99.90;;;;;;5034426;28;20048;-81
2021/04/30 10:51:32;;;;;;;2.40;1.65;;;10.80;99.90;;;;;;5034286;28;20037;-81
2021/04/30 10:54:30;;;;;;;1.48;1.13;;;10.80;99.90;;;;;;5034061;28;20021;-81
2021/04/30 10:57:03;;;;;;;1.20;0.90;;;11.10;99.90;;;;;;5034192;28;20037;-80
2021/04/30 10:59:40;;;;;;;4.97;1.10;;;11.20;99.90;;;;;;5033959;28;20025;-80
2021/04/30 11:02:21;;;;;;;2.92;1.10;;;11.20;99.90;;;;;;5033787;28;20190;-81
2021/04/30 11:05:05;;;;;;;0.68;0.65;;;11.30;99.90;;;;;;5032885;28;20412;-80
2021/04/30 11:07:47;;;;;;;2.08;1.35;;;11.80;99.90;;;;;;5032724;28;20063;-80
2021/04/30 11:10:38;;;;;;;1.27;0.80;;;12.70;99.90;;;;;;5033753;28;20495;-80
2021/04/30 11:13:04;;;;;;;0.80;0.80;;;12.80;99.90;;;;;;5033350;28;20029;-80
2021/04/30 11:15:53;;;;;;;1.40;0.80;;;13.20;99.90;;;;;;5033830;28;20124;-80
2021/04/30 11:18:21;;;;;;;5.13;0.93;;;13.50;99.90;;;;;;5033746;28;20040;-80
2021/04/30 11:21:07;;;;;;;0.90;0.85;;;13.30;99.90;;;;;;5033900;28;20021;-80
2021/04/30 11:23:37;;;;;;;1.83;0.98;;;12.70;99.90;;;;;;5033592;28;20026;-80
2021/04/30 11:26:12;;;;;;;1.83;1.45;;;12.30;99.90;;;;;;5033747;28;20025;-80
2021/04/30 11:28:37;;;;;;;3.50;1.30;;;12.10;99.90;;;;;;5033243;28;20557;-80
2021/04/30 11:31:25;;;;;;;1.17;0.80;;;12.10;99.90;;;;;;5033498;28;20029;-80
2021/04/30 11:34:11;;;;;;;3.10;1.20;;;12.20;99.90;;;;;;5033464;28;20040;-80
2021/04/30 11:36:42;;;;;;;1.58;1.45;;;12.40;99.90;;;;;;5033463;28;20116;-80
2021/04/30 11:39:16;;;;;;;1.40;1.10;;;12.40;99.90;;;;;;5033331;28;20496;-80
2021/04/30 11:41:43;;;;;;;1.60;1.30;;;12.40;99.90;;;;;;5033375;28;20025;-80
2021/04/30 11:44:09;;;;;;;0.82;0.80;;;12.30;99.90;;;;;;5032918;28;20033;-80
2021/04/30 11:46:37;;;;;;;1.20;1.10;;;12.10;99.90;;;;;;5033167;28;20040;-80
2021/04/30 11:49:03;;;;;;;1.92;1.10;;;11.70;99.90;;;;;;5033228;28;20037;-80
2021/04/30 11:51:29;;;;;;;1.88;1.50;;;11.60;99.90;;;;;;5033052;28;20028;-80
2021/04/30 11:53:59;;;;;;;1.98;1.38;;;11.50;99.90;;;;;;5032948;28;20108;-80
2021/04/30 11:56:31;;;;;;;1.20;1.10;;;11.60;99.90;;;;;;5032788;28;20032;-80
2021/04/30 11:58:58;;;;;;;2.10;1.17;;;11.90;99.90;;;;;;5032704;28;20033;-80
2021/04/30 12:01:29;;;;;;;5.80;1.70;;;12.00;99.90;;;;;;5032761;28;20120;-80
2021/04/30 12:03:56;;;;;;;1.65;1.55;;;12.30;99.90;;;;;;5031823;28;20487;-80
2021/04/30 12:06:27;;;;;;;4.97;1.30;;;12.60;99.90;;;;;;5032708;28;20021;-79
2021/04/30 12:08:55;;;;;;;1.30;1.10;;;12.90;99.90;;;;;;5040328;28;20060;-79
2021/04/30 12:11:26;;;;;;;0.90;0.90;;;12.40;99.90;;;;;;5040584;28;20025;-79
2021/04/30 12:13:55;;;;;;;2.08;1.40;;;12.10;99.90;;;;;;5048946;28;20440;-79
2021/04/30 12:16:22;;;;;;;3.30;1.17;;;12.10;99.90;;;;;;5042763;28;20499;-79
2021/04/30 12:18:49;;;;;;;1.75;1.05;;;12.00;99.90;;;;;;5050353;28;20033;-80
2021/04/30 12:21:26;;;;;;;3.42;1.00;;;12.10;99.90;;;;;;5040381;28;20021;-80
2021/04/30 12:23:52;;;;;;;1.40;1.27;;;11.80;99.90;;;;;;5032795;28;20136;-79
2021/04/30 12:26:29;;;;;;;1.00;0.90;;;11.90;99.90;;;;;;5035359;28;20025;-79
2021/04/30 12:28:56;;;;;;;1.05;0.90;;;12.00;99.90;;;;;;5032825;28;20029;-79
2021/04/30 12:31:25;;;;;;;1.63;0.93;;;12.00;99.90;;;;;;5031763;28;20049;-79
2021/04/30 12:33:55;;;;;;;0.73;0.73;;;11.90;99.90;;;;;;5032381;28;20025;-80
2021/04/30 12:36:28;;;;;;;;;;;11.80;99.90;;;;;;5031467;28;20052;-80
2021/04/30 12:38:59;;;;;;;1.13;1.02;;;11.50;99.90;;;;;;5035545;28;20015;-80
2021/04/30 12:41:29;;;;;;;0.95;0.90;;;11.30;99.90;;;;;;5040556;28;20033;-80
2021/04/30 12:43:59;;;;;;;;;;;11.30;99.90;;;;;;5031031;28;20040;-80
2021/04/30 12:46:39;;;;;;;0.80;0.77;;;11.20;99.90;;;;;;5038077;28;19920;-80
2021/04/30 12:49:16;;;;;;;5.80;1.35;;;11.40;99.90;;;;;;5034570;28;20033;-80
2021/04/30 12:51:49;;;;;;;1.08;0.85;;;11.30;99.90;;;;;;5032494;28;20415;-80
2021/04/30 12:54:15;;;;;;;2.00;0.85;;;11.10;99.90;;;;;;5044723;28;20041;-80
2021/04/30 12:56:49;;;;;;;1.23;0.93;;;11.00;99.90;;;;;;5041890;28;20473;-80
2021/04/30 12:59:16;;;;;;;0.98;0.98;;;11.20;99.90;;;;;;5048201;28;20021;-80